createdAt,value
2023-02-19T00:00:24.688Z,178.47
2023-02-19T00:02:56.104Z,172.27
2023-02-19T00:05:24.498Z,183.10
2023-02-19T00:07:52.923Z,173.70
2023-02-19T00:10:21.304Z,175.73
2023-02-19T00:12:49.691Z,179.17
2023-02-19T00:15:18.210Z,175.07
2023-02-19T00:17:46.618Z,172.47
2023-02-19T00:20:16.575Z,171.93
2023-02-19T00:22:44.962Z,171.17
2023-02-19T00:25:13.378Z,179.07
2023-02-19T00:27:41.760Z,169.50
2023-02-19T00:30:10.716Z,186.17
2023-02-19T00:32:39.184Z,165.53
2023-02-19T00:35:07.877Z,182.23
2023-02-19T00:37:37.675Z,179.60
2023-02-19T00:40:06.287Z,192.80
2023-02-19T00:42:34.702Z,182.20
2023-02-19T00:45:03.156Z,179.87
2023-02-19T00:47:31.680Z,184.00
2023-02-19T00:50:00.082Z,177.43
2023-02-19T00:52:28.486Z,188.60
2023-02-19T00:54:58.443Z,174.60
2023-02-19T00:57:26.851Z,173.33
2023-02-19T00:59:55.231Z,188.13
2023-02-19T01:02:23.806Z,182.73
2023-02-19T01:04:52.235Z,176.27
2023-02-19T01:07:20.720Z,176.00
2023-02-19T01:09:49.158Z,178.37
2023-02-19T01:12:19.168Z,185.20
2023-02-19T01:14:47.661Z,174.80
2023-02-19T01:17:16.072Z,169.27
2023-02-19T01:19:44.527Z,178.30
2023-02-19T01:22:12.899Z,170.07
2023-02-19T01:24:41.355Z,172.87
2023-02-19T01:27:09.744Z,167.70
2023-02-19T01:29:39.664Z,163.63
2023-02-19T01:32:08.153Z,158.50
2023-02-19T01:34:36.624Z,163.07
2023-02-19T01:37:05.800Z,176.20
2023-02-19T01:39:34.325Z,174.73
2023-02-19T01:42:03.205Z,165.83
2023-02-19T01:44:50.323Z,174.37
2023-02-19T01:47:20.723Z,169.47
2023-02-19T01:49:51.534Z,175.97
2023-02-19T01:52:22.587Z,176.57
2023-02-19T01:54:52.075Z,178.93
2023-02-19T01:57:22.629Z,185.57
2023-02-19T01:59:54.997Z,189.90
2023-02-19T02:02:25.132Z,170.50
2023-02-19T02:04:53.894Z,187.73
2023-02-19T02:07:40.591Z,186.27
2023-02-19T02:10:21.557Z,168.70
2023-02-19T02:12:50.352Z,174.60
2023-02-19T02:15:19.449Z,177.50
2023-02-19T02:17:53.585Z,191.40
2023-02-19T02:20:29.679Z,182.97
2023-02-19T02:23:01.776Z,178.27
2023-02-19T02:25:46.571Z,195.07
2023-02-19T02:28:27.725Z,176.80
2023-02-19T02:30:58.267Z,180.03
2023-02-19T02:33:30.632Z,169.00
2023-02-19T02:36:01.398Z,173.37
2023-02-19T02:38:31.069Z,177.43
2023-02-19T02:40:59.678Z,177.10
2023-02-19T02:43:28.143Z,191.07
2023-02-19T02:45:58.498Z,178.07
2023-02-19T02:48:29.972Z,170.27
2023-02-19T02:51:01.258Z,172.47
2023-02-19T02:53:49.323Z,184.83
2023-02-19T02:56:18.921Z,173.30
2023-02-19T02:58:48.394Z,183.47
2023-02-19T03:01:37.844Z,169.13
2023-02-19T03:04:07.889Z,170.33
2023-02-19T03:06:37.148Z,185.17
2023-02-19T03:09:09.776Z,181.47
2023-02-19T03:11:57.365Z,185.73
2023-02-19T03:14:47.032Z,173.27
2023-02-19T03:17:36.337Z,181.50
2023-02-19T03:20:06.924Z,172.13
2023-02-19T03:22:36.423Z,178.13
2023-02-19T03:25:24.807Z,179.10
2023-02-19T03:27:53.510Z,177.20
2023-02-19T03:30:23.448Z,182.63
2023-02-19T03:32:55.367Z,184.63
2023-02-19T03:35:25.159Z,186.17
2023-02-19T03:37:57.042Z,170.87
2023-02-19T03:40:28.384Z,172.23
2023-02-19T03:43:01.101Z,177.47
2023-02-19T03:45:33.937Z,194.80
2023-02-19T03:48:09.683Z,190.70
2023-02-19T03:50:39.939Z,154.83
2023-02-19T03:53:11.849Z,192.63
2023-02-19T03:55:45.898Z,193.40
2023-02-19T03:58:16.560Z,185.10
2023-02-19T04:00:47.303Z,188.17
2023-02-19T04:03:20.222Z,196.43
2023-02-19T04:05:50.556Z,186.63
2023-02-19T04:08:20.320Z,176.70
2023-02-19T04:10:49.679Z,185.40
2023-02-19T04:13:21.591Z,180.77
2023-02-19T04:15:51.166Z,204.67
2023-02-19T04:18:24.184Z,202.47
2023-02-19T04:20:52.633Z,213.47
2023-02-19T04:23:22.656Z,202.40
2023-02-19T04:25:55.280Z,197.20
2023-02-19T04:28:23.704Z,198.00
2023-02-19T04:30:52.142Z,196.23
2023-02-19T04:33:21.946Z,199.70
2023-02-19T04:35:50.319Z,193.17
2023-02-19T04:38:18.729Z,211.10
2023-02-19T04:40:47.287Z,196.77
2023-02-19T04:43:15.684Z,205.53
2023-02-19T04:45:44.146Z,194.83
2023-02-19T04:48:12.763Z,187.60
2023-02-19T04:50:42.589Z,185.67
2023-02-19T04:53:10.986Z,182.07
2023-02-19T04:55:39.527Z,186.77
2023-02-19T04:58:07.924Z,192.20
2023-02-19T05:00:36.391Z,182.50
2023-02-19T05:03:04.827Z,185.40
2023-02-19T05:05:33.292Z,200.10
2023-02-19T05:08:03.081Z,195.97
2023-02-19T05:10:31.480Z,188.50
2023-02-19T05:12:59.869Z,188.73
2023-02-19T05:15:28.257Z,223.67
2023-02-19T05:17:56.967Z,208.83
2023-02-19T05:20:25.433Z,192.20
2023-02-19T05:22:53.839Z,215.60
2023-02-19T05:25:23.680Z,211.23
2023-02-19T05:28:12.185Z,193.73
2023-02-19T05:30:40.599Z,192.13
2023-02-19T05:33:09.078Z,207.17
2023-02-19T05:35:42.140Z,192.43
2023-02-19T05:38:10.626Z,204.03
2023-02-19T05:40:40.625Z,197.63
2023-02-19T05:43:09.692Z,197.50
2023-02-19T05:45:38.723Z,190.77
2023-02-19T05:48:08.088Z,206.57
2023-02-19T05:50:39.782Z,200.63
2023-02-19T05:53:08.393Z,198.47
2023-02-19T05:55:37.626Z,196.67
2023-02-19T05:58:07.455Z,218.93
2023-02-19T06:00:35.868Z,217.57
2023-02-19T06:03:04.264Z,195.93
2023-02-19T06:05:32.680Z,209.90
2023-02-19T06:08:01.048Z,216.23
2023-02-19T06:10:29.494Z,207.13
2023-02-19T06:12:57.892Z,212.17
2023-02-19T06:15:27.680Z,197.23
2023-02-19T06:17:56.082Z,215.20
2023-02-19T06:20:26.045Z,226.63
2023-02-19T06:22:54.758Z,207.40
2023-02-19T06:25:23.152Z,209.23
2023-02-19T06:27:51.585Z,215.70
2023-02-19T06:30:20.039Z,218.73
2023-02-19T06:32:49.851Z,198.43
2023-02-19T06:35:18.250Z,213.90
2023-02-19T06:37:48.218Z,199.63
2023-02-19T06:40:16.665Z,204.70
2023-02-19T06:42:45.110Z,203.57
2023-02-19T06:45:13.584Z,210.83
2023-02-19T06:47:42.098Z,204.83
2023-02-19T06:50:11.958Z,197.40
2023-02-19T06:52:40.360Z,217.30
2023-02-19T06:55:08.768Z,211.83
2023-02-19T06:57:37.160Z,208.97
2023-02-19T07:00:06.128Z,230.17
2023-02-19T07:02:34.513Z,219.33
2023-02-19T07:05:02.903Z,231.10
2023-02-19T07:07:32.695Z,213.47
2023-02-19T07:10:01.107Z,245.77
2023-02-19T07:12:29.538Z,240.47
2023-02-19T07:14:57.927Z,229.30
2023-02-19T07:17:26.326Z,262.07
2023-02-19T07:19:54.739Z,275.27
2023-02-19T07:22:23.127Z,245.80
2023-02-19T07:24:52.865Z,258.10
2023-02-19T07:27:21.453Z,264.47
2023-02-19T07:29:49.812Z,252.10
2023-02-19T07:32:18.184Z,256.43
2023-02-19T07:34:46.607Z,288.53
2023-02-19T07:37:15.005Z,262.47
2023-02-19T07:39:43.390Z,254.80
2023-02-19T07:42:13.516Z,256.67
2023-02-19T07:44:41.959Z,270.10
2023-02-19T07:47:10.428Z,263.90
2023-02-19T07:49:38.848Z,275.17
2023-02-19T07:52:07.270Z,229.37
2023-02-19T07:54:35.670Z,271.57
2023-02-19T07:57:04.092Z,236.50
2023-02-19T07:59:33.974Z,244.37
2023-02-19T08:02:34.315Z,251.83
2023-02-19T08:05:02.716Z,225.23
2023-02-19T08:07:33.662Z,261.00
2023-02-19T08:10:15.954Z,231.20
2023-02-19T08:13:02.217Z,250.43
2023-02-19T08:15:32.184Z,231.07
2023-02-19T08:18:00.560Z,247.03
2023-02-19T08:20:28.946Z,243.00
2023-02-19T08:22:57.393Z,240.80
2023-02-19T08:25:25.917Z,237.67
2023-02-19T08:27:54.310Z,245.73
2023-02-19T08:30:23.745Z,247.53
2023-02-19T08:32:53.604Z,241.03
2023-02-19T08:35:21.988Z,229.80
2023-02-19T08:37:50.422Z,211.13
2023-02-19T08:40:19.199Z,247.93
2023-02-19T08:42:47.577Z,243.90
2023-02-19T08:45:16.128Z,256.90
2023-02-19T08:47:44.801Z,238.27
2023-02-19T08:50:14.598Z,263.77
2023-02-19T08:52:43.004Z,269.20
2023-02-19T08:55:11.425Z,283.37
2023-02-19T08:57:40.012Z,274.60
2023-02-19T09:00:09.960Z,269.17
2023-02-19T09:02:38.352Z,248.27
2023-02-19T09:05:07.099Z,255.63
2023-02-19T09:07:36.905Z,242.03
2023-02-19T09:10:05.476Z,227.27
2023-02-19T09:12:34.263Z,254.30
2023-02-19T09:15:02.743Z,267.47
2023-02-19T09:17:31.136Z,259.73
2023-02-19T09:19:59.508Z,273.90
2023-02-19T09:22:28.027Z,267.20
2023-02-19T09:24:57.810Z,264.40
2023-02-19T09:27:26.206Z,275.07
2023-02-19T09:29:55.138Z,143.83
2023-02-19T09:32:23.752Z,203.53
2023-02-19T09:34:52.215Z,247.73
2023-02-19T09:37:20.682Z,250.47
2023-02-19T09:39:49.067Z,271.17
2023-02-19T09:42:20.348Z,260.83
2023-02-19T09:44:49.772Z,267.30
2023-02-19T09:47:19.547Z,264.40
2023-02-19T09:49:52.118Z,267.87
2023-02-19T09:52:26.131Z,184.77
2023-02-19T09:54:57.749Z,218.90
2023-02-19T09:57:28.216Z,249.73
2023-02-19T10:00:01.613Z,237.60
2023-02-19T10:02:31.317Z,259.20
2023-02-19T10:05:01.669Z,250.40
2023-02-19T10:07:36.640Z,256.43
2023-02-19T10:10:19.854Z,256.60
2023-02-19T10:12:51.141Z,265.80
2023-02-19T10:15:20.681Z,219.47
2023-02-19T10:17:49.112Z,140.50
2023-02-19T10:20:18.916Z,192.37
2023-02-19T10:22:47.623Z,232.17
2023-02-19T10:25:17.028Z,228.80
2023-02-19T10:27:45.828Z,245.93
2023-02-19T10:30:20.270Z,239.73
2023-02-19T10:33:00.088Z,243.53
2023-02-19T10:35:28.611Z,185.60
2023-02-19T10:37:57.116Z,171.30
2023-02-19T10:40:27.638Z,202.87
2023-02-19T10:42:58.827Z,230.90
2023-02-19T10:45:32.912Z,247.27
2023-02-19T10:48:01.870Z,250.00
2023-02-19T10:50:32.628Z,231.77
2023-02-19T10:53:02.001Z,233.87
2023-02-19T10:55:31.868Z,176.47
2023-02-19T10:58:00.545Z,199.83
2023-02-19T11:00:32.979Z,220.53
2023-02-19T11:03:20.925Z,226.13
2023-02-19T11:05:53.461Z,245.47
2023-02-19T11:08:23.767Z,235.20
2023-02-19T11:10:52.440Z,248.10
2023-02-19T11:13:25.876Z,188.73
2023-02-19T11:15:56.706Z,181.40
2023-02-19T11:18:27.344Z,203.57
2023-02-19T11:20:56.829Z,237.00
2023-02-19T11:23:27.649Z,255.40
2023-02-19T11:25:57.410Z,239.60
2023-02-19T11:28:29.552Z,196.60
2023-02-19T11:31:14.690Z,165.70
2023-02-19T11:33:47.248Z,214.13
2023-02-19T11:36:28.686Z,223.93
2023-02-19T11:38:59.227Z,231.57
2023-02-19T11:41:37.954Z,239.70
2023-02-19T11:44:14.073Z,172.37
2023-02-19T11:46:47.127Z,176.80
2023-02-19T11:49:23.241Z,201.50
2023-02-19T11:52:00.973Z,215.13
2023-02-19T11:54:35.236Z,237.03
2023-02-19T11:57:09.105Z,238.10
2023-02-19T11:59:44.158Z,165.37
2023-02-19T12:02:30.203Z,191.83
2023-02-19T12:05:18.920Z,203.40
2023-02-19T12:07:59.309Z,220.67
2023-02-19T12:10:30.104Z,228.87
2023-02-19T12:13:04.065Z,221.20
2023-02-19T12:15:37.070Z,215.03
2023-02-19T12:18:14.597Z,134.83
2023-02-19T12:20:50.591Z,190.57
2023-02-19T12:23:37.508Z,205.33
2023-02-19T12:26:08.814Z,222.97
2023-02-19T12:28:45.848Z,228.73
2023-02-19T12:31:25.276Z,234.83
2023-02-19T12:34:02.425Z,191.43
2023-02-19T12:36:37.390Z,131.30
2023-02-19T12:39:09.629Z,172.47
2023-02-19T12:41:42.191Z,196.97
2023-02-19T12:44:13.578Z,215.73
2023-02-19T12:46:44.342Z,224.13
2023-02-19T12:49:14.236Z,173.80
2023-02-19T12:51:46.550Z,152.53
2023-02-19T12:54:16.838Z,195.60
2023-02-19T12:56:48.761Z,200.03
2023-02-19T12:59:20.307Z,197.13
2023-02-19T13:01:50.727Z,207.83
2023-02-19T13:04:24.632Z,171.97
2023-02-19T13:06:56.082Z,146.73
2023-02-19T13:09:29.217Z,188.10
2023-02-19T13:11:59.184Z,190.37
2023-02-19T13:14:30.412Z,210.13
2023-02-19T13:17:02.484Z,209.03
2023-02-19T13:19:32.186Z,148.10
2023-02-19T13:22:23.474Z,138.33
2023-02-19T13:24:52.486Z,202.50
2023-02-19T13:27:32.841Z,209.77
2023-02-19T13:30:09.953Z,206.33
2023-02-19T13:32:48.655Z,215.93
2023-02-19T13:35:26.652Z,149.47
2023-02-19T13:37:57.245Z,186.17
2023-02-19T13:40:29.915Z,216.80
2023-02-19T13:42:59.841Z,210.43
2023-02-19T13:45:32.784Z,212.07
2023-02-19T13:48:04.560Z,163.83
2023-02-19T13:50:34.315Z,185.70
2023-02-19T13:53:24.296Z,193.57
2023-02-19T13:55:54.046Z,207.57
2023-02-19T13:58:54.905Z,206.27
2023-02-19T14:01:38.141Z,181.40
2023-02-19T14:04:10.451Z,160.73
2023-02-19T14:06:53.708Z,180.03
2023-02-19T14:09:36.976Z,194.03
2023-02-19T14:12:19.610Z,173.00
2023-02-19T14:14:48.840Z,131.80
2023-02-19T14:17:31.304Z,169.77
2023-02-19T14:20:01.064Z,191.40
2023-02-19T14:22:49.851Z,187.90
2023-02-19T14:25:26.283Z,162.33
2023-02-19T14:27:57.108Z,140.83
2023-02-19T14:30:25.800Z,174.17
2023-02-19T14:33:09.692Z,174.67
2023-02-19T14:35:40.889Z,178.90
2023-02-19T14:38:16.271Z,189.03
2023-02-19T14:40:47.125Z,136.60
2023-02-19T14:43:18.148Z,135.73
2023-02-19T14:45:49.082Z,165.07
2023-02-19T14:48:23.545Z,165.17
2023-02-19T14:50:53.887Z,153.23
2023-02-19T14:53:23.914Z,111.07
2023-02-19T14:55:52.755Z,150.73
2023-02-19T14:58:24.082Z,161.43
2023-02-19T15:00:52.563Z,162.77
2023-02-19T15:03:28.843Z,146.60
2023-02-19T15:05:58.673Z,135.13
2023-02-19T15:08:31.235Z,159.17
2023-02-19T15:10:59.881Z,169.23
2023-02-19T15:13:31.518Z,172.77
2023-02-19T15:16:00.122Z,180.73
2023-02-19T15:18:30.074Z,143.77
2023-02-19T15:21:02.869Z,129.40
2023-02-19T15:23:32.525Z,149.30
2023-02-19T15:26:01.225Z,163.93
2023-02-19T15:28:33.730Z,165.33
2023-02-19T15:31:07.754Z,123.33
2023-02-19T15:33:36.428Z,125.07
2023-02-19T15:36:06.401Z,151.87
2023-02-19T15:38:35.121Z,162.70
2023-02-19T15:41:03.901Z,145.63
2023-02-19T15:43:35.768Z,133.27
2023-02-19T15:46:05.996Z,154.50
2023-02-19T15:48:39.769Z,167.43
2023-02-19T15:51:11.583Z,176.27
2023-02-19T15:53:42.890Z,149.73
2023-02-19T15:56:13.867Z,134.70
2023-02-19T15:58:45.604Z,140.73
2023-02-19T16:01:16.959Z,166.50
2023-02-19T16:03:45.453Z,172.50
2023-02-19T16:06:15.187Z,144.57
2023-02-19T16:08:44.227Z,132.00
2023-02-19T16:11:28.603Z,148.00
2023-02-19T16:14:11.840Z,179.87
2023-02-19T16:16:43.853Z,185.73
2023-02-19T16:19:12.598Z,190.07
2023-02-19T16:21:41.134Z,141.63
2023-02-19T16:24:15.710Z,136.50
2023-02-19T16:26:44.757Z,158.13
2023-02-19T16:29:18.723Z,160.53
2023-02-19T16:31:51.164Z,178.50
2023-02-19T16:34:20.578Z,127.07
2023-02-19T16:36:49.351Z,144.27
2023-02-19T16:39:21.844Z,161.43
2023-02-19T16:42:10.935Z,173.67
2023-02-19T16:44:39.368Z,175.20
2023-02-19T16:47:14.432Z,162.73
2023-02-19T16:49:44.226Z,135.50
2023-02-19T16:52:15.855Z,144.00
2023-02-19T16:54:44.647Z,164.67
2023-02-19T16:57:13.347Z,166.47
2023-02-19T16:59:41.738Z,178.47
2023-02-19T17:02:16.453Z,166.83
2023-02-19T17:04:44.888Z,131.43
2023-02-19T17:07:15.046Z,156.80
2023-02-19T17:09:43.484Z,179.60
2023-02-19T17:12:13.140Z,187.17
2023-02-19T17:14:41.552Z,175.23
2023-02-19T17:17:11.361Z,148.53
2023-02-19T17:19:40.409Z,150.83
2023-02-19T17:22:09.343Z,156.90
2023-02-19T17:24:37.771Z,167.07
2023-02-19T17:27:06.227Z,178.23
2023-02-19T17:29:35.213Z,185.77
2023-02-19T17:32:03.804Z,153.83
2023-02-19T17:34:33.573Z,129.80
2023-02-19T17:37:02.010Z,111.70
2023-02-19T17:39:30.442Z,93.70
2023-02-19T17:41:58.982Z,62.17
2023-02-19T17:44:27.391Z,59.60
2023-02-19T17:46:55.815Z,82.13
2023-02-19T17:49:24.460Z,102.20
2023-02-19T17:51:54.288Z,130.00
2023-02-19T17:54:22.677Z,129.27
2023-02-19T17:56:51.109Z,130.10
2023-02-19T17:59:19.487Z,142.17
2023-02-19T18:01:47.937Z,147.87
2023-02-19T18:04:16.363Z,150.07
2023-02-19T18:06:44.801Z,157.57
2023-02-19T18:09:15.296Z,161.33
2023-02-19T18:11:46.424Z,159.03
2023-02-19T18:14:14.836Z,157.40
2023-02-19T18:16:49.685Z,158.70
2023-02-19T18:19:18.618Z,159.80
2023-02-19T18:21:47.065Z,170.27
2023-02-19T18:24:16.917Z,156.80
2023-02-19T18:26:45.423Z,154.90
2023-02-19T18:29:14.149Z,157.77
2023-02-19T18:31:42.685Z,167.83
2023-02-19T18:34:17.784Z,160.77
2023-02-19T18:36:46.451Z,167.70
2023-02-19T18:39:14.847Z,168.43
2023-02-19T18:41:48.051Z,164.00
2023-02-19T18:44:19.085Z,170.47
2023-02-19T18:46:47.497Z,160.63
2023-02-19T18:49:16.166Z,169.43
2023-02-19T18:51:44.718Z,156.87
2023-02-19T18:54:13.104Z,160.00
2023-02-19T18:56:46.295Z,162.70
2023-02-19T18:59:15.346Z,164.03
2023-02-19T19:01:44.236Z,164.17
2023-02-19T19:04:12.969Z,166.63
2023-02-19T19:06:41.372Z,164.80
2023-02-19T19:09:09.791Z,154.23
2023-02-19T19:11:38.371Z,160.47
2023-02-19T19:14:08.162Z,174.87
2023-02-19T19:16:36.555Z,163.57
2023-02-19T19:19:04.988Z,164.50
2023-02-19T19:21:33.431Z,161.77
2023-02-19T19:24:01.865Z,157.17
2023-02-19T19:26:30.345Z,160.27
2023-02-19T19:28:58.776Z,166.10
2023-02-19T19:31:35.005Z,165.30
2023-02-19T19:34:03.543Z,156.60
2023-02-19T19:36:32.008Z,150.47
2023-02-19T19:39:00.477Z,163.60
2023-02-19T19:41:28.875Z,152.33
2023-02-19T19:43:57.301Z,159.57
2023-02-19T19:46:25.848Z,146.97
2023-02-19T19:48:55.772Z,151.90
2023-02-19T19:51:24.372Z,155.33
2023-02-19T19:53:52.845Z,158.00
2023-02-19T19:56:21.263Z,155.17
2023-02-19T19:58:49.796Z,162.87
2023-02-19T20:01:21.124Z,158.80
2023-02-19T20:03:51.014Z,150.33
2023-02-19T20:06:27.623Z,169.27
2023-02-19T20:08:56.166Z,170.47
2023-02-19T20:11:24.858Z,160.97
2023-02-19T20:13:53.280Z,162.63
2023-02-19T20:16:25.405Z,169.50
2023-02-19T20:18:53.863Z,164.63
2023-02-19T20:21:22.249Z,180.67
2023-02-19T20:23:52.062Z,164.57
2023-02-19T20:26:24.472Z,165.30
2023-02-19T20:28:52.884Z,181.30
2023-02-19T20:31:21.688Z,168.03
2023-02-19T20:33:51.317Z,180.77
2023-02-19T20:36:20.077Z,175.63
2023-02-19T20:38:48.924Z,169.93
2023-02-19T20:41:18.766Z,181.60
2023-02-19T20:43:47.171Z,171.00
2023-02-19T20:46:15.760Z,166.27
2023-02-19T20:48:44.277Z,153.13
2023-02-19T20:51:12.751Z,158.53
2023-02-19T20:53:43.205Z,168.43
2023-02-19T20:56:12.692Z,165.20
2023-02-19T20:58:44.090Z,148.37
2023-02-19T21:01:12.876Z,144.40
2023-02-19T21:03:41.266Z,152.57
2023-02-19T21:06:10.089Z,156.40
2023-02-19T21:08:38.885Z,150.83
2023-02-19T21:11:07.331Z,151.80
2023-02-19T21:13:36.154Z,157.00
2023-02-19T21:16:06.177Z,146.47
2023-02-19T21:18:34.559Z,141.03
2023-02-19T21:21:02.938Z,168.43
2023-02-19T21:23:31.390Z,170.93
2023-02-19T21:25:59.882Z,169.30
2023-02-19T21:28:28.313Z,180.57
2023-02-19T21:30:56.808Z,185.20
2023-02-19T21:33:26.585Z,183.73
2023-02-19T21:35:55.057Z,180.43
2023-02-19T21:38:23.475Z,191.07
2023-02-19T21:40:51.968Z,185.70
2023-02-19T21:43:20.375Z,200.93
2023-02-19T21:45:48.854Z,192.37
2023-02-19T21:48:17.708Z,207.83
2023-02-19T21:50:47.564Z,188.13
2023-02-19T21:53:16.051Z,200.17
2023-02-19T21:55:57.973Z,197.50
2023-02-19T21:58:27.288Z,195.43
2023-02-19T22:00:56.392Z,201.93
2023-02-19T22:03:26.448Z,194.50
2023-02-19T22:05:56.511Z,192.10
2023-02-19T22:08:24.889Z,179.97
2023-02-19T22:10:53.261Z,196.13
2023-02-19T22:13:21.764Z,200.47
2023-02-19T22:15:50.174Z,192.20
2023-02-19T22:18:18.547Z,186.63
2023-02-19T22:20:47.056Z,176.50
2023-02-19T22:23:16.818Z,171.30
2023-02-19T22:25:45.220Z,176.47
2023-02-19T22:28:13.749Z,181.17
2023-02-19T22:30:42.918Z,174.80
2023-02-19T22:33:11.415Z,182.03
2023-02-19T22:35:39.842Z,189.57
2023-02-19T22:38:08.241Z,186.57
2023-02-19T22:40:38.044Z,187.97
2023-02-19T22:43:06.487Z,178.13
2023-02-19T22:45:34.960Z,179.90
2023-02-19T22:48:03.394Z,173.33
2023-02-19T22:50:32.186Z,186.87
2023-02-19T22:53:00.679Z,184.43
2023-02-19T22:55:29.045Z,185.03
2023-02-19T22:57:58.856Z,181.20
2023-02-19T23:00:27.399Z,194.87
2023-02-19T23:02:55.837Z,195.27
2023-02-19T23:05:25.508Z,191.57
2023-02-19T23:07:53.982Z,184.87
2023-02-19T23:10:23.296Z,188.00
2023-02-19T23:12:51.707Z,185.33
2023-02-19T23:15:21.577Z,180.90
2023-02-19T23:17:49.988Z,182.83
2023-02-19T23:20:18.880Z,185.23
2023-02-19T23:22:47.278Z,180.97
2023-02-19T23:25:15.704Z,176.57
2023-02-19T23:27:44.100Z,180.47
2023-02-19T23:30:12.944Z,185.00
2023-02-19T23:32:42.777Z,187.93
2023-02-19T23:35:11.221Z,179.70
2023-02-19T23:37:39.600Z,187.03
2023-02-19T23:40:08.601Z,182.97
2023-02-19T23:42:37.530Z,179.20
2023-02-19T23:45:06.109Z,196.10
2023-02-19T23:47:34.484Z,193.50
2023-02-19T23:50:04.276Z,194.07
2023-02-19T23:52:32.743Z,192.87
2023-02-19T23:55:01.160Z,191.47
2023-02-19T23:57:29.609Z,205.87
2023-02-19T23:59:57.989Z,197.07
